sensor_id;sensor_type;location;lat;lon;timestamp;P1;durP1;ratioP1;P2;durP2;ratioP2
48941;SDS011;35340;52.378;4.648;2023-02-28T00:02:52;3.78;;;1.40;;
48941;SDS011;35340;52.378;4.648;2023-02-28T00:08:47;2.97;;;1.52;;
48941;SDS011;35340;52.378;4.648;2023-02-28T00:14:34;3.75;;;1.38;;
48941;SDS011;35340;52.378;4.648;2023-02-28T00:16:59;2.42;;;1.27;;
48941;SDS011;35340;52.378;4.648;2023-02-28T00:19:25;3.00;;;1.40;;
48941;SDS011;35340;52.378;4.648;2023-02-28T00:21:50;2.38;;;1.30;;
48941;SDS011;35340;52.378;4.648;2023-02-28T00:24:16;2.60;;;1.33;;
48941;SDS011;35340;52.378;4.648;2023-02-28T00:26:41;3.83;;;1.48;;
48941;SDS011;35340;52.378;4.648;2023-02-28T00:29:06;2.58;;;1.30;;
48941;SDS011;35340;52.378;4.648;2023-02-28T00:31:32;3.45;;;1.50;;
48941;SDS011;35340;52.378;4.648;2023-02-28T00:33:57;2.63;;;1.20;;
48941;SDS011;35340;52.378;4.648;2023-02-28T00:36:23;2.65;;;1.38;;
48941;SDS011;35340;52.378;4.648;2023-02-28T00:38:48;2.20;;;1.15;;
48941;SDS011;35340;52.378;4.648;2023-02-28T00:41:14;2.28;;;1.15;;
48941;SDS011;35340;52.378;4.648;2023-02-28T00:43:39;2.38;;;1.30;;
48941;SDS011;35340;52.378;4.648;2023-02-28T00:46:05;2.30;;;1.35;;
48941;SDS011;35340;52.378;4.648;2023-02-28T00:48:31;2.78;;;1.23;;
48941;SDS011;35340;52.378;4.648;2023-02-28T00:50:57;2.75;;;1.23;;
48941;SDS011;35340;52.378;4.648;2023-02-28T00:53:22;2.67;;;1.30;;
48941;SDS011;35340;52.378;4.648;2023-02-28T00:55:49;1.92;;;1.00;;
48941;SDS011;35340;52.378;4.648;2023-02-28T00:58:14;3.40;;;1.20;;
48941;SDS011;35340;52.378;4.648;2023-02-28T01:00:40;2.95;;;1.30;;
48941;SDS011;35340;52.378;4.648;2023-02-28T01:03:05;2.55;;;1.25;;
48941;SDS011;35340;52.378;4.648;2023-02-28T01:05:31;2.88;;;1.25;;
48941;SDS011;35340;52.378;4.648;2023-02-28T01:07:56;2.30;;;1.30;;
48941;SDS011;35340;52.378;4.648;2023-02-28T01:10:21;2.35;;;1.05;;
48941;SDS011;35340;52.378;4.648;2023-02-28T01:12:47;3.20;;;1.38;;
48941;SDS011;35340;52.378;4.648;2023-02-28T01:15:12;2.05;;;1.02;;
48941;SDS011;35340;52.378;4.648;2023-02-28T01:17:38;2.13;;;1.05;;
48941;SDS011;35340;52.378;4.648;2023-02-28T01:20:03;1.90;;;1.10;;
48941;SDS011;35340;52.378;4.648;2023-02-28T01:22:29;2.17;;;1.10;;
48941;SDS011;35340;52.378;4.648;2023-02-28T01:24:54;1.85;;;1.10;;
48941;SDS011;35340;52.378;4.648;2023-02-28T01:27:20;3.05;;;1.20;;
48941;SDS011;35340;52.378;4.648;2023-02-28T01:29:45;2.50;;;1.30;;
48941;SDS011;35340;52.378;4.648;2023-02-28T01:32:11;3.28;;;1.40;;
48941;SDS011;35340;52.378;4.648;2023-02-28T01:34:36;2.00;;;0.95;;
48941;SDS011;35340;52.378;4.648;2023-02-28T01:37:02;2.05;;;0.90;;
48941;SDS011;35340;52.378;4.648;2023-02-28T01:39:28;2.25;;;0.98;;
48941;SDS011;35340;52.378;4.648;2023-02-28T01:41:54;1.92;;;0.90;;
48941;SDS011;35340;52.378;4.648;2023-02-28T01:47:05;2.45;;;1.10;;
48941;SDS011;35340;52.378;4.648;2023-02-28T01:49:30;3.28;;;1.00;;
48941;SDS011;35340;52.378;4.648;2023-02-28T01:51:56;2.28;;;1.05;;
48941;SDS011;35340;52.378;4.648;2023-02-28T01:54:22;1.83;;;1.00;;
48941;SDS011;35340;52.378;4.648;2023-02-28T01:56:55;2.13;;;0.90;;
48941;SDS011;35340;52.378;4.648;2023-02-28T01:59:49;1.50;;;0.88;;
48941;SDS011;35340;52.378;4.648;2023-02-28T02:02:23;2.42;;;0.90;;
48941;SDS011;35340;52.378;4.648;2023-02-28T02:07:56;1.88;;;0.90;;
48941;SDS011;35340;52.378;4.648;2023-02-28T02:10:32;2.33;;;0.80;;
48941;SDS011;35340;52.378;4.648;2023-02-28T02:34:36;2.78;;;0.80;;
48941;SDS011;35340;52.378;4.648;2023-02-28T02:45:56;1.95;;;1.02;;
48941;SDS011;35340;52.378;4.648;2023-02-28T02:48:24;1.13;;;0.77;;
48941;SDS011;35340;52.378;4.648;2023-02-28T02:50:55;3.10;;;0.98;;
48941;SDS011;35340;52.378;4.648;2023-02-28T03:03:45;2.35;;;0.80;;
48941;SDS011;35340;52.378;4.648;2023-02-28T03:08:46;1.45;;;0.70;;
48941;SDS011;35340;52.378;4.648;2023-02-28T03:11:12;3.17;;;0.90;;
48941;SDS011;35340;52.378;4.648;2023-02-28T03:13:47;2.70;;;0.77;;
48941;SDS011;35340;52.378;4.648;2023-02-28T03:25:00;2.05;;;0.80;;
48941;SDS011;35340;52.378;4.648;2023-02-28T03:28:00;2.03;;;0.95;;
48941;SDS011;35340;52.378;4.648;2023-02-28T03:30:36;2.50;;;0.82;;
48941;SDS011;35340;52.378;4.648;2023-02-28T03:33:20;1.58;;;0.77;;
48941;SDS011;35340;52.378;4.648;2023-02-28T03:36:06;1.60;;;0.70;;
48941;SDS011;35340;52.378;4.648;2023-02-28T03:41:18;4.50;;;0.73;;
48941;SDS011;35340;52.378;4.648;2023-02-28T03:44:07;1.85;;;0.80;;
48941;SDS011;35340;52.378;4.648;2023-02-28T03:46:43;2.88;;;1.00;;
48941;SDS011;35340;52.378;4.648;2023-02-28T03:49:15;4.88;;;0.90;;
48941;SDS011;35340;52.378;4.648;2023-02-28T03:51:46;3.33;;;0.60;;
48941;SDS011;35340;52.378;4.648;2023-02-28T03:54:17;2.42;;;0.70;;
48941;SDS011;35340;52.378;4.648;2023-02-28T03:56:54;3.28;;;0.90;;
48941;SDS011;35340;52.378;4.648;2023-02-28T03:59:30;1.73;;;0.60;;
48941;SDS011;35340;52.378;4.648;2023-02-28T04:02:01;2.78;;;0.75;;
48941;SDS011;35340;52.378;4.648;2023-02-28T04:04:27;3.88;;;1.00;;
48941;SDS011;35340;52.378;4.648;2023-02-28T04:06:53;1.83;;;0.80;;
48941;SDS011;35340;52.378;4.648;2023-02-28T04:09:27;1.52;;;0.80;;
48941;SDS011;35340;52.378;4.648;2023-02-28T04:11:53;2.88;;;0.90;;
48941;SDS011;35340;52.378;4.648;2023-02-28T04:14:20;1.55;;;0.68;;
48941;SDS011;35340;52.378;4.648;2023-02-28T04:16:46;1.67;;;0.60;;
48941;SDS011;35340;52.378;4.648;2023-02-28T04:19:12;1.33;;;0.60;;
48941;SDS011;35340;52.378;4.648;2023-02-28T04:21:39;1.08;;;0.60;;
48941;SDS011;35340;52.378;4.648;2023-02-28T04:24:07;1.98;;;0.75;;
48941;SDS011;35340;52.378;4.648;2023-02-28T04:26:38;1.58;;;0.70;;
48941;SDS011;35340;52.378;4.648;2023-02-28T04:29:05;1.35;;;0.60;;
48941;SDS011;35340;52.378;4.648;2023-02-28T04:31:31;2.55;;;0.80;;
48941;SDS011;35340;52.378;4.648;2023-02-28T04:34:00;1.60;;;0.70;;
48941;SDS011;35340;52.378;4.648;2023-02-28T04:36:26;1.30;;;0.57;;
48941;SDS011;35340;52.378;4.648;2023-02-28T04:38:52;0.73;;;0.60;;
48941;SDS011;35340;52.378;4.648;2023-02-28T04:41:18;2.20;;;0.57;;
48941;SDS011;35340;52.378;4.648;2023-02-28T04:43:44;1.80;;;0.57;;
48941;SDS011;35340;52.378;4.648;2023-02-28T04:46:10;0.95;;;0.60;;
48941;SDS011;35340;52.378;4.648;2023-02-28T04:48:36;1.15;;;0.65;;
48941;SDS011;35340;52.378;4.648;2023-02-28T04:51:04;1.02;;;0.60;;
48941;SDS011;35340;52.378;4.648;2023-02-28T04:53:34;1.88;;;0.70;;
48941;SDS011;35340;52.378;4.648;2023-02-28T04:56:00;1.70;;;0.70;;
48941;SDS011;35340;52.378;4.648;2023-02-28T04:58:29;1.10;;;0.60;;
48941;SDS011;35340;52.378;4.648;2023-02-28T05:01:01;1.75;;;0.70;;
48941;SDS011;35340;52.378;4.648;2023-02-28T05:03:29;1.48;;;0.80;;
48941;SDS011;35340;52.378;4.648;2023-02-28T05:05:55;0.88;;;0.50;;
48941;SDS011;35340;52.378;4.648;2023-02-28T05:08:20;2.08;;;0.68;;
48941;SDS011;35340;52.378;4.648;2023-02-28T05:10:45;1.88;;;0.80;;
48941;SDS011;35340;52.378;4.648;2023-02-28T05:13:11;1.30;;;0.70;;
48941;SDS011;35340;52.378;4.648;2023-02-28T05:15:37;2.28;;;0.90;;
48941;SDS011;35340;52.378;4.648;2023-02-28T05:18:03;0.98;;;0.50;;
48941;SDS011;35340;52.378;4.648;2023-02-28T05:20:28;1.67;;;0.75;;
48941;SDS011;35340;52.378;4.648;2023-02-28T05:22:53;1.45;;;0.70;;
48941;SDS011;35340;52.378;4.648;2023-02-28T05:25:20;1.75;;;0.60;;
48941;SDS011;35340;52.378;4.648;2023-02-28T05:27:56;2.38;;;0.90;;
48941;SDS011;35340;52.378;4.648;2023-02-28T05:33:43;0.88;;;0.60;;
48941;SDS011;35340;52.378;4.648;2023-02-28T05:36:09;1.40;;;0.70;;
48941;SDS011;35340;52.378;4.648;2023-02-28T05:38:47;1.55;;;0.60;;
48941;SDS011;35340;52.378;4.648;2023-02-28T05:44:21;1.05;;;0.60;;
48941;SDS011;35340;52.378;4.648;2023-02-28T05:46:46;1.80;;;0.80;;
48941;SDS011;35340;52.378;4.648;2023-02-28T05:49:12;1.45;;;0.70;;
48941;SDS011;35340;52.378;4.648;2023-02-28T05:51:37;1.02;;;0.57;;
48941;SDS011;35340;52.378;4.648;2023-02-28T05:54:04;1.80;;;0.70;;
48941;SDS011;35340;52.378;4.648;2023-02-28T05:56:30;1.42;;;0.60;;
48941;SDS011;35340;52.378;4.648;2023-02-28T05:58:57;1.55;;;0.63;;
48941;SDS011;35340;52.378;4.648;2023-02-28T06:01:41;1.42;;;0.55;;
48941;SDS011;35340;52.378;4.648;2023-02-28T06:04:16;1.50;;;0.55;;
48941;SDS011;35340;52.378;4.648;2023-02-28T06:06:44;1.73;;;0.70;;
48941;SDS011;35340;52.378;4.648;2023-02-28T06:09:13;2.08;;;0.70;;
48941;SDS011;35340;52.378;4.648;2023-02-28T06:15:02;1.58;;;0.60;;
48941;SDS011;35340;52.378;4.648;2023-02-28T06:17:28;2.47;;;0.68;;
48941;SDS011;35340;52.378;4.648;2023-02-28T06:19:53;1.15;;;0.70;;
48941;SDS011;35340;52.378;4.648;2023-02-28T06:22:19;0.85;;;0.50;;
48941;SDS011;35340;52.378;4.648;2023-02-28T06:24:44;1.60;;;0.70;;
48941;SDS011;35340;52.378;4.648;2023-02-28T06:27:09;1.65;;;0.55;;
48941;SDS011;35340;52.378;4.648;2023-02-28T06:29:35;2.35;;;0.90;;
48941;SDS011;35340;52.378;4.648;2023-02-28T06:32:01;2.55;;;0.90;;
48941;SDS011;35340;52.378;4.648;2023-02-28T06:34:27;0.77;;;0.45;;
48941;SDS011;35340;52.378;4.648;2023-02-28T06:36:52;1.27;;;0.68;;
48941;SDS011;35340;52.378;4.648;2023-02-28T06:39:18;0.65;;;0.45;;
48941;SDS011;35340;52.378;4.648;2023-02-28T06:41:43;1.05;;;0.65;;
48941;SDS011;35340;52.378;4.648;2023-02-28T06:44:14;0.95;;;0.50;;
48941;SDS011;35340;52.378;4.648;2023-02-28T06:46:42;2.05;;;0.60;;
48941;SDS011;35340;52.378;4.648;2023-02-28T06:49:12;1.05;;;0.70;;
48941;SDS011;35340;52.378;4.648;2023-02-28T06:51:41;5.30;;;1.77;;
48941;SDS011;35340;52.378;4.648;2023-02-28T06:54:11;8.02;;;2.40;;
48941;SDS011;35340;52.378;4.648;2023-02-28T06:56:37;6.45;;;2.05;;
48941;SDS011;35340;52.378;4.648;2023-02-28T06:59:03;11.10;;;2.65;;
48941;SDS011;35340;52.378;4.648;2023-02-28T07:01:29;6.65;;;2.05;;
48941;SDS011;35340;52.378;4.648;2023-02-28T07:03:56;12.02;;;2.28;;
48941;SDS011;35340;52.378;4.648;2023-02-28T07:06:22;12.20;;;1.88;;
48941;SDS011;35340;52.378;4.648;2023-02-28T07:08:48;7.05;;;2.05;;
48941;SDS011;35340;52.378;4.648;2023-02-28T07:11:14;6.28;;;1.98;;
48941;SDS011;35340;52.378;4.648;2023-02-28T07:13:40;6.68;;;1.95;;
48941;SDS011;35340;52.378;4.648;2023-02-28T07:16:06;4.93;;;2.10;;
48941;SDS011;35340;52.378;4.648;2023-02-28T07:18:34;10.30;;;2.00;;
48941;SDS011;35340;52.378;4.648;2023-02-28T07:21:06;5.25;;;1.73;;
48941;SDS011;35340;52.378;4.648;2023-02-28T07:23:33;6.03;;;1.83;;
48941;SDS011;35340;52.378;4.648;2023-02-28T07:25:59;4.55;;;1.70;;
48941;SDS011;35340;52.378;4.648;2023-02-28T07:28:25;2.83;;;1.40;;
48941;SDS011;35340;52.378;4.648;2023-02-28T07:30:50;4.00;;;1.70;;
48941;SDS011;35340;52.378;4.648;2023-02-28T07:33:16;3.90;;;1.60;;
48941;SDS011;35340;52.378;4.648;2023-02-28T07:35:41;4.20;;;1.50;;
48941;SDS011;35340;52.378;4.648;2023-02-28T07:38:07;3.75;;;1.50;;
48941;SDS011;35340;52.378;4.648;2023-02-28T07:40:33;5.10;;;1.63;;
48941;SDS011;35340;52.378;4.648;2023-02-28T07:43:00;4.05;;;1.45;;
48941;SDS011;35340;52.378;4.648;2023-02-28T07:45:26;4.55;;;1.40;;
48941;SDS011;35340;52.378;4.648;2023-02-28T07:47:53;2.35;;;1.30;;
48941;SDS011;35340;52.378;4.648;2023-02-28T07:50:19;3.63;;;1.58;;
48941;SDS011;35340;52.378;4.648;2023-02-28T07:52:45;3.88;;;1.65;;
48941;SDS011;35340;52.378;4.648;2023-02-28T07:55:10;3.40;;;1.23;;
48941;SDS011;35340;52.378;4.648;2023-02-28T07:57:35;2.60;;;1.17;;
48941;SDS011;35340;52.378;4.648;2023-02-28T08:00:03;2.95;;;1.30;;
48941;SDS011;35340;52.378;4.648;2023-02-28T08:02:34;3.60;;;1.20;;
48941;SDS011;35340;52.378;4.648;2023-02-28T08:04:59;3.20;;;1.60;;
48941;SDS011;35340;52.378;4.648;2023-02-28T08:07:25;2.05;;;1.20;;
48941;SDS011;35340;52.378;4.648;2023-02-28T08:09:50;3.55;;;1.42;;
48941;SDS011;35340;52.378;4.648;2023-02-28T08:12:15;4.35;;;1.20;;
48941;SDS011;35340;52.378;4.648;2023-02-28T08:14:41;2.60;;;1.20;;
48941;SDS011;35340;52.378;4.648;2023-02-28T08:17:06;2.88;;;1.40;;
48941;SDS011;35340;52.378;4.648;2023-02-28T08:19:32;2.92;;;1.40;;
48941;SDS011;35340;52.378;4.648;2023-02-28T08:21:57;3.65;;;1.45;;
48941;SDS011;35340;52.378;4.648;2023-02-28T08:24:23;2.72;;;1.20;;
48941;SDS011;35340;52.378;4.648;2023-02-28T08:26:48;2.58;;;1.33;;
48941;SDS011;35340;52.378;4.648;2023-02-28T08:29:22;1.80;;;1.00;;
48941;SDS011;35340;52.378;4.648;2023-02-28T08:31:47;3.65;;;1.40;;
48941;SDS011;35340;52.378;4.648;2023-02-28T08:34:13;6.88;;;1.02;;
48941;SDS011;35340;52.378;4.648;2023-02-28T08:36:40;2.72;;;1.00;;
48941;SDS011;35340;52.378;4.648;2023-02-28T08:39:06;1.60;;;0.90;;
48941;SDS011;35340;52.378;4.648;2023-02-28T08:41:32;2.08;;;1.00;;
48941;SDS011;35340;52.378;4.648;2023-02-28T08:43:58;2.67;;;1.40;;
48941;SDS011;35340;52.378;4.648;2023-02-28T08:46:23;2.00;;;1.10;;
48941;SDS011;35340;52.378;4.648;2023-02-28T08:48:53;2.25;;;1.25;;
48941;SDS011;35340;52.378;4.648;2023-02-28T08:51:20;2.22;;;0.82;;
48941;SDS011;35340;52.378;4.648;2023-02-28T08:53:51;1.17;;;0.82;;
48941;SDS011;35340;52.378;4.648;2023-02-28T08:56:18;2.92;;;1.10;;
48941;SDS011;35340;52.378;4.648;2023-02-28T08:58:44;3.22;;;0.90;;
48941;SDS011;35340;52.378;4.648;2023-02-28T09:01:18;1.67;;;0.80;;
48941;SDS011;35340;52.378;4.648;2023-02-28T09:03:45;2.00;;;1.08;;
48941;SDS011;35340;52.378;4.648;2023-02-28T09:06:13;1.67;;;1.10;;
48941;SDS011;35340;52.378;4.648;2023-02-28T09:08:39;1.50;;;1.00;;
48941;SDS011;35340;52.378;4.648;2023-02-28T09:11:05;1.73;;;0.90;;
48941;SDS011;35340;52.378;4.648;2023-02-28T09:13:31;1.90;;;0.90;;
48941;SDS011;35340;52.378;4.648;2023-02-28T09:15:57;1.92;;;0.90;;
48941;SDS011;35340;52.378;4.648;2023-02-28T09:18:24;1.63;;;0.80;;
48941;SDS011;35340;52.378;4.648;2023-02-28T09:20:49;1.65;;;0.98;;
48941;SDS011;35340;52.378;4.648;2023-02-28T09:23:15;1.63;;;0.88;;
48941;SDS011;35340;52.378;4.648;2023-02-28T09:25:48;1.45;;;0.90;;
48941;SDS011;35340;52.378;4.648;2023-02-28T09:28:16;1.65;;;0.70;;
48941;SDS011;35340;52.378;4.648;2023-02-28T09:30:44;1.90;;;0.90;;
48941;SDS011;35340;52.378;4.648;2023-02-28T09:33:10;0.98;;;0.70;;
48941;SDS011;35340;52.378;4.648;2023-02-28T09:35:36;1.52;;;0.80;;
48941;SDS011;35340;52.378;4.648;2023-02-28T09:38:02;1.75;;;0.88;;
48941;SDS011;35340;52.378;4.648;2023-02-28T09:40:28;1.35;;;0.80;;
48941;SDS011;35340;52.378;4.648;2023-02-28T09:42:54;1.23;;;0.90;;
48941;SDS011;35340;52.378;4.648;2023-02-28T09:47:50;2.08;;;0.88;;
48941;SDS011;35340;52.378;4.648;2023-02-28T09:50:28;1.25;;;0.90;;
48941;SDS011;35340;52.378;4.648;2023-02-28T09:52:54;1.23;;;0.70;;
48941;SDS011;35340;52.378;4.648;2023-02-28T09:58:20;3.13;;;1.02;;
48941;SDS011;35340;52.378;4.648;2023-02-28T10:00:56;1.23;;;0.70;;
48941;SDS011;35340;52.378;4.648;2023-02-28T10:03:34;3.92;;;0.80;;
48941;SDS011;35340;52.378;4.648;2023-02-28T10:08:36;1.60;;;0.90;;
48941;SDS011;35340;52.378;4.648;2023-02-28T10:11:08;2.47;;;0.93;;
48941;SDS011;35340;52.378;4.648;2023-02-28T10:16:14;1.52;;;0.80;;
48941;SDS011;35340;52.378;4.648;2023-02-28T10:18:43;1.33;;;0.80;;
48941;SDS011;35340;52.378;4.648;2023-02-28T10:21:15;1.10;;;0.80;;
48941;SDS011;35340;52.378;4.648;2023-02-28T10:23:48;0.85;;;0.70;;
48941;SDS011;35340;52.378;4.648;2023-02-28T10:26:17;2.40;;;0.90;;
48941;SDS011;35340;52.378;4.648;2023-02-28T10:28:43;1.33;;;0.80;;
48941;SDS011;35340;52.378;4.648;2023-02-28T10:31:14;1.65;;;0.65;;
48941;SDS011;35340;52.378;4.648;2023-02-28T10:33:42;1.27;;;0.80;;
48941;SDS011;35340;52.378;4.648;2023-02-28T10:36:11;1.02;;;0.75;;
48941;SDS011;35340;52.378;4.648;2023-02-28T10:38:39;1.10;;;0.70;;
48941;SDS011;35340;52.378;4.648;2023-02-28T10:43:32;1.60;;;0.80;;
48941;SDS011;35340;52.378;4.648;2023-02-28T10:48:32;4.22;;;0.70;;
48941;SDS011;35340;52.378;4.648;2023-02-28T10:51:02;1.00;;;0.60;;
48941;SDS011;35340;52.378;4.648;2023-02-28T11:04:17;1.00;;;0.70;;
48941;SDS011;35340;52.378;4.648;2023-02-28T11:06:44;1.33;;;0.68;;
48941;SDS011;35340;52.378;4.648;2023-02-28T11:09:19;1.52;;;0.80;;
48941;SDS011;35340;52.378;4.648;2023-02-28T11:12:06;1.10;;;0.55;;
48941;SDS011;35340;52.378;4.648;2023-02-28T11:14:40;1.17;;;0.70;;
48941;SDS011;35340;52.378;4.648;2023-02-28T11:17:21;0.70;;;0.55;;
48941;SDS011;35340;52.378;4.648;2023-02-28T11:20:04;0.82;;;0.60;;
48941;SDS011;35340;52.378;4.648;2023-02-28T11:22:33;1.23;;;0.68;;
48941;SDS011;35340;52.378;4.648;2023-02-28T11:25:13;1.30;;;0.60;;
48941;SDS011;35340;52.378;4.648;2023-02-28T11:27:50;0.90;;;0.52;;
48941;SDS011;35340;52.378;4.648;2023-02-28T11:30:31;1.25;;;0.80;;
48941;SDS011;35340;52.378;4.648;2023-02-28T11:32:59;1.20;;;0.60;;
48941;SDS011;35340;52.378;4.648;2023-02-28T11:35:31;0.68;;;0.60;;
48941;SDS011;35340;52.378;4.648;2023-02-28T11:38:00;0.77;;;0.55;;
48941;SDS011;35340;52.378;4.648;2023-02-28T11:40:33;0.63;;;0.50;;
48941;SDS011;35340;52.378;4.648;2023-02-28T11:45:39;0.60;;;0.60;;
48941;SDS011;35340;52.378;4.648;2023-02-28T11:48:36;0.63;;;0.52;;
48941;SDS011;35340;52.378;4.648;2023-02-28T11:51:15;0.70;;;0.45;;
48941;SDS011;35340;52.378;4.648;2023-02-28T11:57:03;1.20;;;0.60;;
48941;SDS011;35340;52.378;4.648;2023-02-28T11:59:53;1.05;;;0.63;;
48941;SDS011;35340;52.378;4.648;2023-02-28T12:02:28;0.80;;;0.50;;
48941;SDS011;35340;52.378;4.648;2023-02-28T12:08:15;0.82;;;0.55;;
48941;SDS011;35340;52.378;4.648;2023-02-28T12:16:41;0.43;;;0.40;;
48941;SDS011;35340;52.378;4.648;2023-02-28T12:22:53;0.90;;;0.60;;
48941;SDS011;35340;52.378;4.648;2023-02-28T12:25:55;0.90;;;0.47;;
48941;SDS011;35340;52.378;4.648;2023-02-28T12:28:24;0.70;;;0.50;;
48941;SDS011;35340;52.378;4.648;2023-02-28T12:33:27;1.00;;;0.50;;
48941;SDS011;35340;52.378;4.648;2023-02-28T12:35:59;0.60;;;0.50;;
48941;SDS011;35340;52.378;4.648;2023-02-28T12:38:35;0.50;;;0.43;;
48941;SDS011;35340;52.378;4.648;2023-02-28T12:41:06;0.65;;;0.50;;
48941;SDS011;35340;52.378;4.648;2023-02-28T12:44:20;1.35;;;1.00;;
48941;SDS011;35340;52.378;4.648;2023-02-28T12:46:53;2.70;;;0.50;;
48941;SDS011;35340;52.378;4.648;2023-02-28T12:49:25;1.65;;;0.60;;
48941;SDS011;35340;52.378;4.648;2023-02-28T12:51:56;1.17;;;0.60;;
48941;SDS011;35340;52.378;4.648;2023-02-28T12:55:08;0.93;;;0.52;;
48941;SDS011;35340;52.378;4.648;2023-02-28T13:00:19;1.00;;;0.50;;
48941;SDS011;35340;52.378;4.648;2023-02-28T13:03:10;0.65;;;0.43;;
48941;SDS011;35340;52.378;4.648;2023-02-28T13:09:09;0.55;;;0.40;;
48941;SDS011;35340;52.378;4.648;2023-02-28T13:11:43;0.98;;;0.50;;
48941;SDS011;35340;52.378;4.648;2023-02-28T13:19:40;2.97;;;0.50;;
48941;SDS011;35340;52.378;4.648;2023-02-28T13:25:59;0.70;;;0.60;;
48941;SDS011;35340;52.378;4.648;2023-02-28T13:28:00;0.57;;;0.40;;
48941;SDS011;35340;52.378;4.648;2023-02-28T13:38:44;0.77;;;0.52;;
48941;SDS011;35340;52.378;4.648;2023-02-28T14:00:21;4.75;;;1.20;;
48941;SDS011;35340;52.378;4.648;2023-02-28T14:05:32;3.13;;;1.23;;
48941;SDS011;35340;52.378;4.648;2023-02-28T14:10:30;2.53;;;0.90;;
48941;SDS011;35340;52.378;4.648;2023-02-28T14:12:59;3.60;;;1.10;;
48941;SDS011;35340;52.378;4.648;2023-02-28T14:15:39;3.05;;;0.90;;
48941;SDS011;35340;52.378;4.648;2023-02-28T14:18:14;2.30;;;1.13;;
48941;SDS011;35340;52.378;4.648;2023-02-28T14:24:15;2.70;;;0.93;;
48941;SDS011;35340;52.378;4.648;2023-02-28T14:37:45;1.17;;;0.73;;
48941;SDS011;35340;52.378;4.648;2023-02-28T14:40:46;1.75;;;0.70;;
48941;SDS011;35340;52.378;4.648;2023-02-28T14:43:06;2.28;;;0.90;;
48941;SDS011;35340;52.378;4.648;2023-02-28T14:45:43;1.38;;;0.75;;
48941;SDS011;35340;52.378;4.648;2023-02-28T14:48:09;1.85;;;0.80;;
48941;SDS011;35340;52.378;4.648;2023-02-28T14:50:35;1.30;;;0.77;;
48941;SDS011;35340;52.378;4.648;2023-02-28T14:53:02;1.77;;;0.98;;
48941;SDS011;35340;52.378;4.648;2023-02-28T14:55:32;1.73;;;0.70;;
48941;SDS011;35340;52.378;4.648;2023-02-28T14:58:01;2.50;;;0.90;;
48941;SDS011;35340;52.378;4.648;2023-02-28T15:00:32;1.73;;;0.90;;
48941;SDS011;35340;52.378;4.648;2023-02-28T15:03:00;1.30;;;0.70;;
48941;SDS011;35340;52.378;4.648;2023-02-28T15:05:28;1.92;;;0.80;;
48941;SDS011;35340;52.378;4.648;2023-02-28T15:13:48;2.83;;;0.80;;
48941;SDS011;35340;52.378;4.648;2023-02-28T15:16:17;2.10;;;0.80;;
48941;SDS011;35340;52.378;4.648;2023-02-28T15:21:21;2.00;;;1.00;;
48941;SDS011;35340;52.378;4.648;2023-02-28T15:24:02;1.02;;;0.60;;
48941;SDS011;35340;52.378;4.648;2023-02-28T15:26:42;2.30;;;0.70;;
48941;SDS011;35340;52.378;4.648;2023-02-28T15:29:19;1.92;;;0.70;;
48941;SDS011;35340;52.378;4.648;2023-02-28T15:31:50;1.38;;;0.60;;
48941;SDS011;35340;52.378;4.648;2023-02-28T15:34:29;1.25;;;0.70;;
48941;SDS011;35340;52.378;4.648;2023-02-28T15:36:58;0.77;;;0.60;;
48941;SDS011;35340;52.378;4.648;2023-02-28T15:39:24;1.48;;;0.90;;
48941;SDS011;35340;52.378;4.648;2023-02-28T15:42:18;0.90;;;0.60;;
48941;SDS011;35340;52.378;4.648;2023-02-28T15:44:45;1.17;;;0.63;;
48941;SDS011;35340;52.378;4.648;2023-02-28T15:47:23;1.92;;;0.73;;
48941;SDS011;35340;52.378;4.648;2023-02-28T15:49:56;1.45;;;0.90;;
48941;SDS011;35340;52.378;4.648;2023-02-28T15:52:43;1.05;;;0.63;;
48941;SDS011;35340;52.378;4.648;2023-02-28T15:55:10;1.10;;;0.70;;
48941;SDS011;35340;52.378;4.648;2023-02-28T15:57:41;1.60;;;0.70;;
48941;SDS011;35340;52.378;4.648;2023-02-28T16:00:09;0.98;;;0.73;;
48941;SDS011;35340;52.378;4.648;2023-02-28T16:02:37;1.42;;;0.70;;
48941;SDS011;35340;52.378;4.648;2023-02-28T16:07:32;0.90;;;0.60;;
48941;SDS011;35340;52.378;4.648;2023-02-28T16:09:58;0.85;;;0.60;;
48941;SDS011;35340;52.378;4.648;2023-02-28T16:12:28;0.95;;;0.60;;
48941;SDS011;35340;52.378;4.648;2023-02-28T16:14:56;1.00;;;0.60;;
48941;SDS011;35340;52.378;4.648;2023-02-28T16:17:28;0.88;;;0.60;;
48941;SDS011;35340;52.378;4.648;2023-02-28T16:19:57;0.90;;;0.70;;
48941;SDS011;35340;52.378;4.648;2023-02-28T16:22:24;1.40;;;0.70;;
48941;SDS011;35340;52.378;4.648;2023-02-28T16:24:56;1.52;;;0.60;;
48941;SDS011;35340;52.378;4.648;2023-02-28T16:27:27;0.90;;;0.60;;
48941;SDS011;35340;52.378;4.648;2023-02-28T16:29:56;1.25;;;0.60;;
48941;SDS011;35340;52.378;4.648;2023-02-28T16:32:24;1.85;;;0.70;;
48941;SDS011;35340;52.378;4.648;2023-02-28T16:34:49;0.73;;;0.60;;
48941;SDS011;35340;52.378;4.648;2023-02-28T16:37:16;0.90;;;0.43;;
48941;SDS011;35340;52.378;4.648;2023-02-28T16:39:43;1.10;;;0.60;;
48941;SDS011;35340;52.378;4.648;2023-02-28T16:42:20;1.50;;;0.75;;
48941;SDS011;35340;52.378;4.648;2023-02-28T16:44:49;1.20;;;0.70;;
48941;SDS011;35340;52.378;4.648;2023-02-28T16:47:16;0.90;;;0.68;;
48941;SDS011;35340;52.378;4.648;2023-02-28T16:49:41;0.90;;;0.70;;
48941;SDS011;35340;52.378;4.648;2023-02-28T16:52:08;1.40;;;0.50;;
48941;SDS011;35340;52.378;4.648;2023-02-28T16:54:34;0.50;;;0.50;;
48941;SDS011;35340;52.378;4.648;2023-02-28T16:57:00;0.88;;;0.60;;
48941;SDS011;35340;52.378;4.648;2023-02-28T16:59:26;1.05;;;0.68;;
48941;SDS011;35340;52.378;4.648;2023-02-28T17:01:53;1.10;;;0.63;;
48941;SDS011;35340;52.378;4.648;2023-02-28T17:04:19;1.48;;;0.70;;
48941;SDS011;35340;52.378;4.648;2023-02-28T17:06:44;1.13;;;0.60;;
48941;SDS011;35340;52.378;4.648;2023-02-28T17:09:15;1.02;;;0.60;;
48941;SDS011;35340;52.378;4.648;2023-02-28T17:11:46;1.40;;;0.77;;
48941;SDS011;35340;52.378;4.648;2023-02-28T17:14:12;1.48;;;0.60;;
48941;SDS011;35340;52.378;4.648;2023-02-28T17:16:38;0.80;;;0.50;;
48941;SDS011;35340;52.378;4.648;2023-02-28T17:19:16;1.38;;;0.60;;
48941;SDS011;35340;52.378;4.648;2023-02-28T17:21:42;0.98;;;0.60;;
48941;SDS011;35340;52.378;4.648;2023-02-28T17:24:08;2.47;;;0.50;;
48941;SDS011;35340;52.378;4.648;2023-02-28T17:26:37;2.13;;;0.60;;
48941;SDS011;35340;52.378;4.648;2023-02-28T17:29:05;3.85;;;0.55;;
48941;SDS011;35340;52.378;4.648;2023-02-28T17:31:37;4.25;;;0.70;;
48941;SDS011;35340;52.378;4.648;2023-02-28T17:34:04;0.98;;;0.60;;
48941;SDS011;35340;52.378;4.648;2023-02-28T17:36:29;1.15;;;0.50;;
48941;SDS011;35340;52.378;4.648;2023-02-28T17:38:55;1.23;;;0.60;;
48941;SDS011;35340;52.378;4.648;2023-02-28T17:41:21;1.08;;;0.57;;
48941;SDS011;35340;52.378;4.648;2023-02-28T17:43:46;2.97;;;0.60;;
48941;SDS011;35340;52.378;4.648;2023-02-28T17:46:19;1.67;;;0.95;;
48941;SDS011;35340;52.378;4.648;2023-02-28T17:48:47;0.50;;;0.50;;
48941;SDS011;35340;52.378;4.648;2023-02-28T17:51:13;0.60;;;0.50;;
48941;SDS011;35340;52.378;4.648;2023-02-28T17:53:39;2.63;;;0.55;;
48941;SDS011;35340;52.378;4.648;2023-02-28T17:56:04;1.20;;;0.60;;
48941;SDS011;35340;52.378;4.648;2023-02-28T17:58:35;1.27;;;0.60;;
48941;SDS011;35340;52.378;4.648;2023-02-28T18:01:01;1.05;;;0.60;;
48941;SDS011;35340;52.378;4.648;2023-02-28T18:03:26;1.98;;;0.65;;
48941;SDS011;35340;52.378;4.648;2023-02-28T18:05:53;1.50;;;0.60;;
48941;SDS011;35340;52.378;4.648;2023-02-28T18:08:21;2.67;;;0.65;;
48941;SDS011;35340;52.378;4.648;2023-02-28T18:10:47;1.30;;;0.60;;
48941;SDS011;35340;52.378;4.648;2023-02-28T18:13:12;2.72;;;0.65;;
48941;SDS011;35340;52.378;4.648;2023-02-28T18:15:38;2.20;;;0.60;;
48941;SDS011;35340;52.378;4.648;2023-02-28T18:18:03;1.02;;;0.60;;
48941;SDS011;35340;52.378;4.648;2023-02-28T18:20:31;1.33;;;0.63;;